Clemson, South Carolina
Current Conditions -  °F | °C
As of 4:54 PM on Monday 20 Oct 2014 (Local Time) from KCEU Reporting Station
Few Clouds Few Clouds  
Wind Chill: 72°   Ceiling: Unl
Heat Index: 72°   Visibility: 10mi
Dew Point: 48°   Wind: 6mph
Humidity: 43%   Direction: 280°W
Pressure: 30.01"   Gusts: NA
Location:  34.68°N, 82.84°W
Report Text: KCEU 202054Z AUTO 28005KT 10SM FEW047 22/09 A3001 RMK AO2 SLP156 T02220089 56016
Loading
Personal Weather Stations






























Interactive Weather Map New forecast layout! Learn more

10-Day Weather Forecast

Advertisements
Track Severe Weather on mobile